CheckWX is a tool to help pilots better visualize weather data.  It is not intended as a substitute for an official pre-flight weather briefing.

13:21:11 UTC

EHJA METAR
J6-a Sea
J6-a Sea, The Netherlands
Current

26 mins ago

EHJA 071255Z AUTO 28014KT 9999 NSC 13/09 Q1018
Observed
Jul-7 @ 12:55 UTC
Wind
  • 280° at 14 KTS
Visibility
10,000+ meters
Flight Rules
VFR
Cloud Levels
  • Clear skies
Temperature
13°C / 55°F
Dewpoint
C / 48°F
Humidity
77%
Altimeter
30.06" Hg
Pressure
1017.92 hPa
Previous

56 mins ago

EHJA 071225Z AUTO 28014KT 9999 NSC 13/09 Q1018
Observed
Jul-7 @ 12:25 UTC
Wind
  • 280° at 14 KTS
Visibility
10,000+ meters
Flight Rules
VFR
Cloud Levels
  • Clear skies
Temperature
13°C / 55°F
Dewpoint
C / 48°F
Humidity
77%
Altimeter
30.06" Hg
Pressure
1017.92 hPa
Previous

1 hour ago

EHJA 071155Z AUTO 26016KT 9999 NSC 13/09 Q1018
Observed
Jul-7 @ 11:55 UTC
Wind
  • 260° at 16 KTS
Visibility
10,000+ meters
Flight Rules
VFR
Cloud Levels
  • Clear skies
Temperature
13°C / 55°F
Dewpoint
C / 48°F
Humidity
77%
Altimeter
30.06" Hg
Pressure
1017.92 hPa